createdAt,value
2023-02-05T00:03:22.984Z,7.50
2023-02-05T00:08:27.457Z,8.30
2023-02-05T00:13:29.127Z,8.00
2023-02-05T00:18:31.743Z,8.90
2023-02-05T00:23:35.013Z,7.20
2023-02-05T00:28:36.874Z,8.57
2023-02-05T00:33:38.673Z,7.37
2023-02-05T00:38:42.265Z,7.60
2023-02-05T00:43:44.044Z,7.37
2023-02-05T00:48:45.827Z,5.90
2023-02-05T00:53:48.906Z,5.97
2023-02-05T00:58:51.195Z,5.97
2023-02-05T01:03:53.171Z,5.70
2023-02-05T01:08:56.237Z,4.70
2023-02-05T01:13:59.922Z,4.70
2023-02-05T01:19:01.706Z,4.70
2023-02-05T01:24:05.832Z,4.90
2023-02-05T01:29:07.618Z,4.70
2023-02-05T01:34:09.421Z,4.60
2023-02-05T01:39:12.562Z,4.03
2023-02-05T01:44:15.633Z,4.03
2023-02-05T01:49:19.726Z,3.70
2023-02-05T01:54:23.169Z,4.43
2023-02-05T01:59:26.342Z,4.20
2023-02-05T02:04:32.925Z,4.20
2023-02-05T02:09:36.077Z,4.20
2023-02-05T02:14:37.829Z,3.60
2023-02-05T02:19:42.959Z,4.50
2023-02-05T02:25:24.492Z,4.00
2023-02-05T02:30:29.489Z,3.80
2023-02-05T02:35:34.465Z,3.80
2023-02-05T02:40:37.660Z,3.93
2023-02-05T02:45:43.502Z,4.17
2023-02-05T02:50:46.988Z,3.57
2023-02-05T02:55:49.033Z,3.53
2023-02-05T03:00:52.653Z,3.77
2023-02-05T03:05:54.488Z,3.20
2023-02-05T03:10:58.863Z,3.87
2023-02-05T03:16:01.970Z,3.40
2023-02-05T03:21:05.454Z,4.10
2023-02-05T03:26:22.390Z,3.57
2023-02-05T03:31:30.274Z,3.60
2023-02-05T03:36:35.947Z,3.90
2023-02-05T03:41:57.513Z,3.90
2023-02-05T03:47:05.987Z,3.90
2023-02-05T03:52:10.780Z,3.73
2023-02-05T03:57:15.746Z,4.00
2023-02-05T04:02:20.528Z,4.13
2023-02-05T04:07:22.719Z,4.30
2023-02-05T04:12:24.553Z,3.60
2023-02-05T04:17:27.703Z,3.57
2023-02-05T04:22:30.030Z,4.07
2023-02-05T04:27:32.306Z,4.23
2023-02-05T04:32:37.533Z,4.00
2023-02-05T04:37:39.873Z,3.90
2023-02-05T04:42:41.684Z,3.80
2023-02-05T04:47:44.687Z,3.47
2023-02-05T04:52:46.353Z,4.43
2023-02-05T04:57:48.078Z,3.43
2023-02-05T05:02:51.127Z,3.33
2023-02-05T05:07:52.831Z,3.60
2023-02-05T05:12:54.565Z,3.47
2023-02-05T05:17:57.604Z,3.90
2023-02-05T05:23:00.324Z,4.00
2023-02-05T05:28:02.070Z,3.90
2023-02-05T05:33:05.225Z,4.47
2023-02-05T05:38:07.007Z,4.77
2023-02-05T05:43:27.994Z,6.80
2023-02-05T05:48:31.107Z,8.40
2023-02-05T05:53:32.903Z,5.00
2023-02-05T05:58:34.654Z,4.80
2023-02-05T06:03:37.744Z,5.70
2023-02-05T06:08:39.557Z,4.57
2023-02-05T06:13:41.805Z,5.17
2023-02-05T06:18:45.001Z,4.73
2023-02-05T06:23:47.888Z,4.70
2023-02-05T06:28:49.534Z,4.30
2023-02-05T06:33:52.568Z,4.10
2023-02-05T06:38:54.277Z,4.10
2023-02-05T06:43:56.328Z,4.47
2023-02-05T06:48:59.363Z,4.23
2023-02-05T06:54:01.033Z,4.70
2023-02-05T06:59:02.703Z,4.13
2023-02-05T07:04:05.796Z,4.03
2023-02-05T07:09:08.033Z,4.63
2023-02-05T07:14:09.759Z,5.20
2023-02-05T07:19:12.824Z,5.03
2023-02-05T07:24:14.504Z,4.70
2023-02-05T07:29:16.158Z,4.13
2023-02-05T07:34:20.269Z,4.10
2023-02-05T07:39:21.943Z,4.10
2023-02-05T07:44:23.669Z,4.57
2023-02-05T07:49:27.232Z,5.30
2023-02-05T07:54:28.938Z,6.30
2023-02-05T07:59:30.624Z,6.23
2023-02-05T08:04:33.878Z,6.40
2023-02-05T08:09:36.257Z,5.50
2023-02-05T08:14:38.010Z,5.87
2023-02-05T08:19:42.043Z,5.60
2023-02-05T08:24:43.708Z,5.30
2023-02-05T08:29:47.143Z,4.70
2023-02-05T08:34:50.884Z,4.90
2023-02-05T08:39:52.621Z,4.50
2023-02-05T08:44:58.284Z,3.90
2023-02-05T08:50:01.398Z,4.40
2023-02-05T08:55:03.447Z,3.60
2023-02-05T09:00:05.642Z,3.87
2023-02-05T09:05:09.822Z,6.70
2023-02-05T09:10:12.480Z,4.80
2023-02-05T09:15:14.179Z,5.80
2023-02-05T09:20:17.638Z,6.03
2023-02-05T09:25:19.591Z,5.80
2023-02-05T09:30:21.267Z,4.67
2023-02-05T09:35:24.338Z,4.70
2023-02-05T09:40:28.471Z,5.63
2023-02-05T09:45:39.559Z,5.13
2023-02-05T09:50:42.776Z,4.67
2023-02-05T09:55:47.622Z,5.40
2023-02-05T10:00:49.876Z,5.97
2023-02-05T10:06:12.197Z,6.20
2023-02-05T10:11:18.170Z,7.00
2023-02-05T10:16:30.088Z,6.93
2023-02-05T10:21:43.868Z,6.30
2023-02-05T10:26:48.656Z,6.80
2023-02-05T10:31:55.588Z,7.27
2023-02-05T10:36:58.703Z,6.60
2023-02-05T10:42:01.808Z,5.80
2023-02-05T10:47:05.690Z,7.67
2023-02-05T10:52:11.425Z,6.70
2023-02-05T10:57:13.882Z,6.80
2023-02-05T11:02:15.561Z,7.37
2023-02-05T11:07:21.863Z,6.43
2023-02-05T11:12:27.823Z,6.57
2023-02-05T11:17:31.973Z,7.37
2023-02-05T11:22:36.243Z,5.90
2023-02-05T11:27:39.190Z,5.97
2023-02-05T11:32:40.991Z,6.43
2023-02-05T11:37:44.038Z,6.07
2023-02-05T11:42:48.445Z,6.40
2023-02-05T11:47:50.094Z,6.77
2023-02-05T11:52:53.265Z,7.40
2023-02-05T11:57:58.347Z,6.03
2023-02-05T12:03:05.124Z,5.83
2023-02-05T12:08:11.978Z,5.50
2023-02-05T12:13:19.398Z,5.83
2023-02-05T12:18:25.897Z,5.33
2023-02-05T12:23:39.242Z,5.00
2023-02-05T12:28:45.209Z,6.27
2023-02-05T12:34:01.426Z,5.60
2023-02-05T12:39:09.162Z,5.30
2023-02-05T12:44:24.786Z,5.97
2023-02-05T12:49:40.320Z,7.13
2023-02-05T12:54:59.229Z,5.90
2023-02-05T13:00:03.602Z,5.43
2023-02-05T13:05:10.850Z,5.23
2023-02-05T13:10:17.172Z,5.60
2023-02-05T13:15:19.564Z,6.17
2023-02-05T13:20:43.774Z,6.20
2023-02-05T13:26:07.309Z,6.30
2023-02-05T13:31:21.142Z,5.10
2023-02-05T13:36:51.401Z,5.60
2023-02-05T13:42:03.041Z,6.10
2023-02-05T13:47:34.622Z,6.00
2023-02-05T13:52:46.879Z,5.47
2023-02-05T13:58:20.524Z,5.70
2023-02-05T14:03:26.697Z,6.40
2023-02-05T14:08:37.498Z,5.60
2023-02-05T14:13:40.638Z,5.60
2023-02-05T14:18:47.610Z,5.60
2023-02-05T14:23:56.005Z,5.60
2023-02-05T14:28:58.998Z,6.30
2023-02-05T14:34:28.357Z,5.57
2023-02-05T14:39:32.916Z,6.17
2023-02-05T14:44:36.813Z,6.10
2023-02-05T14:49:42.788Z,6.80
2023-02-05T14:54:46.712Z,7.50
2023-02-05T14:59:53.008Z,6.50
2023-02-05T15:04:54.692Z,7.20
2023-02-05T15:09:57.790Z,8.70
2023-02-05T15:15:01.392Z,6.90
2023-02-05T15:20:04.624Z,6.60
2023-02-05T15:25:09.347Z,5.73
2023-02-05T15:30:16.926Z,5.60
2023-02-05T15:35:19.362Z,5.43
2023-02-05T15:40:22.596Z,5.60
2023-02-05T15:45:28.439Z,6.07
2023-02-05T15:50:30.173Z,5.47
2023-02-05T15:55:32.128Z,7.10
2023-02-05T16:00:35.510Z,9.63
2023-02-05T16:05:37.824Z,9.00
2023-02-05T16:10:39.524Z,7.70
2023-02-05T16:15:44.532Z,9.30
2023-02-05T16:20:46.988Z,9.97
2023-02-05T16:25:49.593Z,8.50
2023-02-05T16:30:53.914Z,7.47
2023-02-05T16:35:55.601Z,8.13
2023-02-05T16:40:58.908Z,7.90
2023-02-05T16:46:24.651Z,8.17
2023-02-05T16:51:28.030Z,8.23
2023-02-05T16:56:30.261Z,7.10
2023-02-05T17:01:38.277Z,10.00
2023-02-05T17:06:40.012Z,30.20
2023-02-05T17:11:42.269Z,18.73
2023-02-05T17:16:52.927Z,17.83
2023-02-05T17:22:18.968Z,18.30
2023-02-05T17:27:24.724Z,15.00
2023-02-05T17:32:27.680Z,15.77
2023-02-05T17:37:29.306Z,17.27
2023-02-05T17:42:31.236Z,12.40
2023-02-05T17:47:34.292Z,14.73
2023-02-05T17:52:35.957Z,14.10
2023-02-05T17:57:37.977Z,12.53
2023-02-05T18:02:41.037Z,10.40
2023-02-05T18:07:44.111Z,10.70
2023-02-05T18:12:45.858Z,10.47
2023-02-05T18:17:48.885Z,9.73
2023-02-05T18:22:50.764Z,12.10
2023-02-05T18:27:52.854Z,12.10
2023-02-05T18:32:56.302Z,12.90
2023-02-05T18:37:58.014Z,10.10
2023-02-05T18:43:00.352Z,8.50
2023-02-05T18:48:03.740Z,8.47
2023-02-05T18:53:06.128Z,8.90
2023-02-05T18:58:07.805Z,8.63
2023-02-05T19:03:11.277Z,8.37
2023-02-05T19:08:13.514Z,7.10
2023-02-05T19:13:15.302Z,7.77
2023-02-05T19:18:18.299Z,9.00
2023-02-05T19:23:20.014Z,8.90
2023-02-05T19:28:21.665Z,13.00
2023-02-05T19:33:24.681Z,18.50
2023-02-05T19:38:26.346Z,22.40
2023-02-05T19:43:28.093Z,21.30
2023-02-05T19:48:31.229Z,25.87
2023-02-05T19:53:32.964Z,31.63
2023-02-05T19:58:34.790Z,27.00
2023-02-05T20:03:37.893Z,14.80
2023-02-05T20:08:39.862Z,13.47
2023-02-05T20:13:41.910Z,9.27
2023-02-05T20:18:44.990Z,9.30
2023-02-05T20:23:46.861Z,9.77
2023-02-05T20:29:11.079Z,10.07
2023-02-05T20:34:18.234Z,10.60
2023-02-05T20:39:20.324Z,10.00
2023-02-05T20:44:22.024Z,10.93
2023-02-05T20:49:25.327Z,12.70
2023-02-05T20:54:27.002Z,11.67
2023-02-05T20:59:29.441Z,12.50
2023-02-05T21:04:32.503Z,10.53
2023-02-05T21:09:34.372Z,10.90
2023-02-05T21:14:36.038Z,9.37
2023-02-05T21:19:39.539Z,8.73
2023-02-05T21:24:41.282Z,8.47
2023-02-05T21:29:43.544Z,8.20
2023-02-05T21:38:04.905Z,7.30
2023-02-05T21:43:06.591Z,7.97
2023-02-05T21:48:08.960Z,7.00
2023-02-05T21:53:12.461Z,7.93
2023-02-05T21:58:14.143Z,7.70
2023-02-05T22:03:15.761Z,8.90
2023-02-05T22:08:18.774Z,8.93
2023-02-05T22:13:20.436Z,7.67
2023-02-05T22:18:22.139Z,9.33
2023-02-05T22:23:25.148Z,9.23
2023-02-05T22:28:26.933Z,8.93
2023-02-05T22:33:29.027Z,8.73
2023-02-05T22:38:32.237Z,9.13
2023-02-05T22:43:34.499Z,8.52
2023-02-05T22:48:36.833Z,9.10
2023-02-05T22:53:39.844Z,8.07
2023-02-05T22:58:42.393Z,9.43
2023-02-05T23:03:45.606Z,9.30
2023-02-05T23:08:51.196Z,9.70
2023-02-05T23:13:52.864Z,10.67
2023-02-05T23:18:55.847Z,9.80
2023-02-05T23:23:58.828Z,9.97
2023-02-05T23:29:00.517Z,9.40
2023-02-05T23:34:02.304Z,10.07
2023-02-05T23:39:05.385Z,9.40
2023-02-05T23:44:09.835Z,9.57
2023-02-05T23:49:11.633Z,9.47
2023-02-05T23:54:14.641Z,10.63
2023-02-05T23:59:16.336Z,10.33
